Time;durP1;ratioP1;P1;durP2;ratioP2;P2;SDS_P1;SDS_P2;PMS_P1;PMS_P2;Temp;Humidity;BMP_temperature;BMP_pressure;BME280_temperature;BME280_humidity;BME280_pressure;Samples;Min_cycle;Max_cycle;Signal;HPM_P1;HPM_P2
2022/06/10 00:00:02;;;;;;;;;;;27.80;52.10;;;;;;666780;29;885;-92
2022/06/10 00:00:23;;;;;;;;;;;27.80;52.00;;;;;;662779;29;1167;-89
2022/06/10 00:00:44;;;;;;;;;;;27.80;52.00;;;;;;663217;29;1711;-90
2022/06/10 00:01:23;;;;;;;;;;;27.80;52.10;;;;;;664061;29;868;-87
2022/06/10 00:01:44;;;;;;;;;;;27.80;52.10;;;;;;665795;29;852;-92
2022/06/10 00:02:04;;;;;;;;;;;27.80;52.10;;;;;;664847;29;914;-83
2022/06/10 00:02:25;;;;;;;;;;;27.80;52.10;;;;;;668369;29;876;-86
2022/06/10 00:02:45;;;;;;;;;;;27.80;52.10;;;;;;667407;29;864;-90
2022/06/10 00:03:06;;;;;;;;;;;27.80;52.10;;;;;;667956;29;917;-80
2022/06/10 00:03:27;;;;;;;;;;;27.80;52.10;;;;;;668250;29;832;-85
2022/06/10 00:03:49;;;;;;;;;;;27.80;52.20;;;;;;668616;29;928;-83
2022/06/10 00:04:09;;;;;;;;;;;27.80;52.10;;;;;;667223;29;920;-90
2022/06/10 00:04:32;;;;;;;;;;;27.80;52.30;;;;;;667980;29;954;-86
2022/06/10 00:04:52;;;;;;;;;;;27.80;52.30;;;;;;668118;29;877;-85
2022/06/10 00:05:16;;;;;;;;;;;27.80;52.20;;;;;;668068;29;893;-83
2022/06/10 00:05:37;;;;;;;;;;;27.80;52.20;;;;;;668170;29;899;-82
2022/06/10 00:05:59;;;;;;;;;;;27.80;52.20;;;;;;668282;29;859;-85
2022/06/10 00:06:19;;;;;;;;;;;27.80;52.20;;;;;;668521;29;1391;-82
2022/06/10 00:06:40;;;;;;;;;;;27.80;52.20;;;;;;670771;29;930;-82
2022/06/10 00:07:00;;;;;;;;;;;27.70;52.20;;;;;;670919;29;1178;-85
2022/06/10 00:07:21;;;;;;;;;;;27.70;52.20;;;;;;670297;29;1165;-83
2022/06/10 00:07:42;;;;;;;;;;;27.80;52.40;;;;;;670763;29;881;-85
2022/06/10 00:08:04;;;;;;;;;;;27.80;52.30;;;;;;670909;29;828;-84
2022/06/10 00:08:30;;;;;;;;;;;27.80;52.30;;;;;;670913;29;881;-83
2022/06/10 00:08:50;;;;;;;;;;;27.80;52.30;;;;;;670428;29;1298;-87
2022/06/10 00:09:11;;;;;;;;;;;27.80;52.50;;;;;;667353;29;1752;-83
2022/06/10 00:09:31;;;;;;;;;;;27.80;53.60;;;;;;668039;29;884;-85
2022/06/10 00:09:52;;;;;;;;;;;27.80;52.60;;;;;;667875;29;1596;-80
2022/06/10 00:10:14;;;;;;;;;;;27.80;52.60;;;;;;667535;29;801;-89
2022/06/10 00:10:35;;;;;;;;;;;27.80;52.60;;;;;;667871;29;810;-81
2022/06/10 00:10:56;;;;;;;;;;;27.80;52.50;;;;;;668365;29;940;-82
2022/06/10 00:11:16;;;;;;;;;;;27.80;52.50;;;;;;667798;29;1551;-87
2022/06/10 00:11:37;;;;;;;;;;;27.80;52.60;;;;;;668561;29;895;-83
2022/06/10 00:11:57;;;;;;;;;;;27.80;52.80;;;;;;670764;29;797;-81
2022/06/10 00:12:18;;;;;;;;;;;27.80;52.50;;;;;;667679;29;1413;-86
2022/06/10 00:12:39;;;;;;;;;;;27.80;52.60;;;;;;665081;29;1234;-83
2022/06/10 00:13:00;;;;;;;;;;;27.80;52.60;;;;;;665691;29;841;-82
2022/06/10 00:13:22;;;;;;;;;;;27.80;52.50;;;;;;664917;29;987;-83
2022/06/10 00:13:44;;;;;;;;;;;27.80;52.60;;;;;;665553;29;1332;-84
2022/06/10 00:14:04;;;;;;;;;;;27.80;52.50;;;;;;665637;29;888;-81
2022/06/10 00:14:25;;;;;;;;;;;27.80;52.50;;;;;;667441;29;868;-81
2022/06/10 00:14:45;;;;;;;;;;;27.80;52.50;;;;;;669050;29;1933;-84
2022/06/10 00:15:07;;;;;;;;;;;27.80;52.60;;;;;;673132;29;872;-82
2022/06/10 00:15:27;;;;;;;;;;;27.90;52.50;;;;;;670470;29;1405;-81
2022/06/10 00:15:48;;;;;;;;;;;27.80;52.50;;;;;;673162;29;1394;-82
2022/06/10 00:16:09;;;;;;;;;;;27.80;52.60;;;;;;670385;29;1217;-83
2022/06/10 00:16:29;;;;;;;;;;;27.80;52.60;;;;;;670331;29;1175;-89
2022/06/10 00:16:50;;;;;;;;;;;27.80;52.70;;;;;;670265;29;1675;-83
2022/06/10 00:17:11;;;;;;;;;;;27.90;52.50;;;;;;670669;29;824;-81
2022/06/10 00:17:31;;;;;;;;;;;27.80;52.60;;;;;;670473;29;1325;-83
2022/06/10 00:17:52;;;;;;;;;;;27.80;52.60;;;;;;670359;29;884;-82
2022/06/10 00:18:13;;;;;;;;;;;27.90;52.50;;;;;;670708;29;824;-85
2022/06/10 00:18:34;;;;;;;;;;;27.90;52.60;;;;;;670555;29;896;-82
2022/06/10 00:18:56;;;;;;;;;;;27.90;52.50;;;;;;670648;29;749;-82
2022/06/10 00:19:16;;;;;;;;;;;27.90;52.60;;;;;;670487;29;860;-81
2022/06/10 00:19:37;;;;;;;;;;;28.40;53.40;;;;;;673132;29;1025;-83
2022/06/10 00:19:57;;;;;;;;;;;27.90;52.50;;;;;;673486;29;1150;-85
2022/06/10 00:20:20;;;;;;;;;;;27.90;52.50;;;;;;673264;29;824;-83
2022/06/10 00:20:41;;;;;;;;;;;27.90;52.50;;;;;;672947;29;1527;-84
2022/06/10 00:21:03;;;;;;;;;;;27.90;52.60;;;;;;673210;29;919;-84
2022/06/10 00:21:25;;;;;;;;;;;27.90;52.40;;;;;;673348;29;863;-82
2022/06/10 00:21:45;;;;;;;;;;;27.90;52.50;;;;;;673001;29;816;-88
2022/06/10 00:22:06;;;;;;;;;;;27.90;52.50;;;;;;673484;29;840;-82
2022/06/10 00:22:26;;;;;;;;;;;27.90;52.30;;;;;;672285;29;1353;-81
2022/06/10 00:22:47;;;;;;;;;;;27.90;52.50;;;;;;673174;29;928;-82
2022/06/10 00:23:08;;;;;;;;;;;27.90;52.50;;;;;;672399;29;852;-91
2022/06/10 00:23:28;;;;;;;;;;;27.90;52.40;;;;;;670442;29;896;-96
2022/06/10 00:23:49;;;;;;;;;;;27.90;52.40;;;;;;667501;29;1312;-94
2022/06/10 00:24:10;;;;;;;;;;;27.90;52.50;;;;;;665326;29;1184;-96
2022/06/10 00:24:30;;;;;;;;;;;27.90;52.40;;;;;;667593;29;840;-85
2022/06/10 00:24:51;;;;;;;;;;;27.90;52.40;;;;;;667807;29;844;-95
2022/06/10 00:25:12;;;;;;;;;;;27.90;52.40;;;;;;667525;29;1083;-95
2022/06/10 00:25:33;;;;;;;;;;;27.90;52.40;;;;;;667950;29;1411;-88
2022/06/10 00:25:53;;;;;;;;;;;27.90;52.40;;;;;;670315;29;797;-88
2022/06/10 00:26:15;;;;;;;;;;;27.90;52.50;;;;;;670332;29;912;-95
2022/06/10 00:26:35;;;;;;;;;;;27.90;52.40;;;;;;670205;29;1674;-93
2022/06/10 00:26:56;;;;;;;;;;;27.90;52.40;;;;;;670642;29;860;-95
2022/06/10 00:27:17;;;;;;;;;;;27.90;52.50;;;;;;670248;29;805;-95
2022/06/10 00:27:38;;;;;;;;;;;27.90;52.40;;;;;;670059;29;800;-91
2022/06/10 00:27:59;;;;;;;;;;;27.90;52.60;;;;;;670322;29;907;-94
2022/06/10 00:28:19;;;;;;;;;;;27.90;52.30;;;;;;670150;29;987;-94
2022/06/10 00:28:42;;;;;;;;;;;27.90;52.30;;;;;;670052;29;951;-94
2022/06/10 00:29:03;;;;;;;;;;;27.90;52.30;;;;;;668228;29;1225;-93
2022/06/10 00:29:24;;;;;;;;;;;27.90;52.40;;;;;;670490;29;833;-91
2022/06/10 00:29:45;;;;;;;;;;;27.90;52.30;;;;;;670071;29;805;-95
2022/06/10 00:30:07;;;;;;;;;;;27.90;52.30;;;;;;667601;29;837;-94
2022/06/10 00:30:29;;;;;;;;;;;27.90;52.30;;;;;;665105;29;1201;-91
2022/06/10 00:30:49;;;;;;;;;;;27.90;52.30;;;;;;665306;29;1363;-94
2022/06/10 00:31:10;;;;;;;;;;;27.90;52.30;;;;;;667544;29;861;-94
2022/06/10 00:31:31;;;;;;;;;;;27.90;52.30;;;;;;665024;29;1229;-93
2022/06/10 00:31:51;;;;;;;;;;;27.90;52.20;;;;;;665775;29;951;-95
2022/06/10 00:32:12;;;;;;;;;;;27.90;52.30;;;;;;667669;29;856;-95
2022/06/10 00:32:33;;;;;;;;;;;27.90;52.30;;;;;;667894;29;1312;-86
2022/06/10 00:32:53;;;;;;;;;;;28.00;52.40;;;;;;670279;29;801;-88
2022/06/10 00:33:14;;;;;;;;;;;27.90;52.50;;;;;;670229;29;821;-96
2022/06/10 00:33:34;;;;;;;;;;;28.00;52.40;;;;;;670817;29;788;-91
2022/06/10 00:33:55;;;;;;;;;;;27.90;52.30;;;;;;670836;29;884;-95
2022/06/10 00:34:15;;;;;;;;;;;27.90;52.30;;;;;;670829;29;789;-94
2022/06/10 00:34:36;;;;;;;;;;;28.00;52.70;;;;;;670889;29;789;-95
2022/06/10 00:34:57;;;;;;;;;;;28.00;52.50;;;;;;670103;29;1966;-94
2022/06/10 00:35:17;;;;;;;;;;;28.00;52.30;;;;;;670472;29;916;-87
2022/06/10 00:35:38;;;;;;;;;;;28.00;52.30;;;;;;670513;29;939;-91
2022/06/10 00:35:59;;;;;;;;;;;27.90;52.20;;;;;;670812;29;903;-94
2022/06/10 00:36:20;;;;;;;;;;;27.90;52.10;;;;;;670598;29;876;-94
2022/06/10 00:36:41;;;;;;;;;;;28.00;52.30;;;;;;670541;29;827;-94
2022/06/10 00:37:02;;;;;;;;;;;28.00;52.20;;;;;;670853;29;495;-92
2022/06/10 00:37:23;;;;;;;;;;;28.00;52.20;;;;;;671021;29;820;-95
2022/06/10 00:37:44;;;;;;;;;;;27.90;52.20;;;;;;670767;29;920;-95
2022/06/10 00:38:05;;;;;;;;;;;27.90;52.20;;;;;;670762;29;1010;-88
2022/06/10 00:38:27;;;;;;;;;;;28.00;52.10;;;;;;670907;29;776;-94
2022/06/10 00:38:48;;;;;;;;;;;27.90;52.20;;;;;;670774;29;817;-82
2022/06/10 00:39:08;;;;;;;;;;;27.90;52.10;;;;;;670910;29;813;-94
2022/06/10 00:39:29;;;;;;;;;;;27.90;52.20;;;;;;670784;29;974;-95
2022/06/10 00:39:50;;;;;;;;;;;27.90;52.10;;;;;;670753;29;789;-93
2022/06/10 00:40:19;;;;;;;;;;;28.00;52.20;;;;;;670782;29;812;-95
2022/06/10 00:40:41;;;;;;;;;;;27.90;52.10;;;;;;667860;29;1206;-94
2022/06/10 00:41:03;;;;;;;;;;;27.90;52.20;;;;;;668017;29;833;-92
2022/06/10 00:41:23;;;;;;;;;;;27.90;52.10;;;;;;668124;29;917;-89
2022/06/10 00:41:44;;;;;;;;;;;27.90;52.10;;;;;;667979;29;873;-93
2022/06/10 00:42:06;;;;;;;;;;;28.00;52.10;;;;;;667995;29;1059;-93
2022/06/10 00:42:26;;;;;;;;;;;27.90;52.10;;;;;;668210;29;805;-91
2022/06/10 00:42:47;;;;;;;;;;;27.90;52.20;;;;;;667842;29;1427;-83
2022/06/10 00:43:17;;;;;;;;;;;27.90;52.10;;;;;;667642;29;1236;-90
2022/06/10 00:43:38;;;;;;;;;;;28.00;52.30;;;;;;668021;29;864;-94
2022/06/10 00:43:59;;;;;;;;;;;27.90;52.10;;;;;;668101;29;963;-93
2022/06/10 00:44:49;;;;;;;;;;;27.90;52.10;;;;;;667995;29;793;-94
2022/06/10 00:45:28;;;;;;;;;;;28.00;52.20;;;;;;658008;30;924;-93
2022/06/10 00:45:51;;;;;;;;;;;28.00;52.30;;;;;;657813;30;1339;-95
2022/06/10 00:46:23;;;;;;;;;;;27.90;52.10;;;;;;658015;30;817;-96
2022/06/10 00:46:44;;;;;;;;;;;27.90;52.20;;;;;;658009;30;881;-94
2022/06/10 00:47:11;;;;;;;;;;;27.90;52.20;;;;;;657916;30;1207;-94
2022/06/10 00:47:37;;;;;;;;;;;27.90;52.20;;;;;;658114;30;818;-95
2022/06/10 00:47:57;;;;;;;;;;;28.00;52.30;;;;;;658099;30;849;-83
2022/06/10 00:48:29;;;;;;;;;;;27.90;52.10;;;;;;657886;30;916;-93
2022/06/10 00:48:59;;;;;;;;;;;27.90;52.00;;;;;;657988;30;861;-93
2022/06/10 00:49:20;;;;;;;;;;;27.90;52.20;;;;;;657975;30;822;-93
2022/06/10 00:49:43;;;;;;;;;;;27.90;52.20;;;;;;657847;30;1373;-91
2022/06/10 00:50:06;;;;;;;;;;;27.90;52.30;;;;;;657890;30;893;-95
2022/06/10 00:50:29;;;;;;;;;;;27.90;52.20;;;;;;657990;30;969;-95
2022/06/10 00:50:49;;;;;;;;;;;27.90;52.30;;;;;;657983;30;829;-94
2022/06/10 00:51:29;;;;;;;;;;;27.90;52.20;;;;;;657867;30;992;-93
2022/06/10 00:51:51;;;;;;;;;;;27.90;52.10;;;;;;657988;30;876;-94
2022/06/10 00:52:15;;;;;;;;;;;27.90;52.10;;;;;;657822;30;905;-93
2022/06/10 00:52:37;;;;;;;;;;;27.90;52.20;;;;;;657912;30;790;-90
2022/06/10 00:53:02;;;;;;;;;;;27.90;52.20;;;;;;658016;30;999;-95
2022/06/10 00:53:25;;;;;;;;;;;27.90;52.30;;;;;;659239;30;869;-94
2022/06/10 00:53:49;;;;;;;;;;;27.90;52.40;;;;;;660465;30;868;-90
2022/06/10 00:54:09;;;;;;;;;;;27.90;52.50;;;;;;660299;30;849;-95
2022/06/10 00:54:37;;;;;;;;;;;27.90;52.30;;;;;;660432;30;886;-94
2022/06/10 00:54:58;;;;;;;;;;;27.90;52.30;;;;;;660396;30;1896;-86
2022/06/10 00:55:28;;;;;;;;;;;27.90;52.50;;;;;;660255;30;968;-94
2022/06/10 00:55:49;;;;;;;;;;;27.90;52.40;;;;;;657930;30;1206;-93
2022/06/10 00:56:13;;;;;;;;;;;27.90;52.50;;;;;;657835;30;1830;-93
2022/06/10 00:56:34;;;;;;;;;;;27.90;52.50;;;;;;657979;30;826;-93
2022/06/10 00:56:59;;;;;;;;;;;27.90;52.40;;;;;;657830;30;1238;-95
2022/06/10 00:57:24;;;;;;;;;;;27.90;52.30;;;;;;657960;30;782;-93
2022/06/10 00:57:45;;;;;;;;;;;27.90;52.60;;;;;;659739;30;889;-94
2022/06/10 00:58:13;;;;;;;;;;;27.90;52.50;;;;;;658587;30;821;-93
2022/06/10 00:58:45;;;;;;;;;;;27.90;52.30;;;;;;657900;30;882;-93
2022/06/10 00:59:14;;;;;;;;;;;27.90;52.30;;;;;;660234;30;858;-91
2022/06/10 00:59:37;;;;;;;;;;;27.90;52.50;;;;;;660411;30;849;-92
2022/06/10 01:00:00;;;;;;;;;;;27.90;52.40;;;;;;660567;30;794;-93
2022/06/10 01:00:20;;;;;;;;;;;27.90;52.20;;;;;;660304;30;899;-94
2022/06/10 01:00:41;;;;;;;;;;;27.90;52.30;;;;;;660309;30;873;-95
2022/06/10 01:01:02;;;;;;;;;;;27.90;52.30;;;;;;660451;30;885;-94
2022/06/10 01:01:23;;;;;;;;;;;27.90;52.20;;;;;;660313;30;930;-94
2022/06/10 01:01:44;;;;;;;;;;;27.90;52.30;;;;;;660352;30;822;-95
2022/06/10 01:02:09;;;;;;;;;;;27.90;52.40;;;;;;660366;30;790;-94
2022/06/10 01:02:31;;;;;;;;;;;27.90;52.40;;;;;;660512;30;876;-95
2022/06/10 01:02:51;;;;;;;;;;;27.90;52.40;;;;;;660408;30;893;-93
2022/06/10 01:03:12;;;;;;;;;;;27.90;52.60;;;;;;660293;30;1020;-94
2022/06/10 01:03:33;;;;;;;;;;;27.90;52.60;;;;;;660384;30;770;-87
2022/06/10 01:03:53;;;;;;;;;;;27.90;52.60;;;;;;660520;30;802;-92
2022/06/10 01:04:14;;;;;;;;;;;27.90;52.50;;;;;;660434;30;845;-96
2022/06/10 01:04:35;;;;;;;;;;;27.90;52.50;;;;;;660364;30;952;-94
2022/06/10 01:04:57;;;;;;;;;;;27.90;52.40;;;;;;660360;30;1386;-93
2022/06/10 01:05:19;;;;;;;;;;;27.90;52.50;;;;;;660378;30;836;-91
2022/06/10 01:05:40;;;;;;;;;;;27.90;52.50;;;;;;660477;30;916;-96
2022/06/10 01:06:00;;;;;;;;;;;27.90;52.50;;;;;;660503;30;821;-94
2022/06/10 01:06:21;;;;;;;;;;;27.80;52.60;;;;;;660279;30;796;-92
2022/06/10 01:06:42;;;;;;;;;;;27.90;52.60;;;;;;660341;30;829;-95
2022/06/10 01:07:02;;;;;;;;;;;27.80;52.50;;;;;;660254;30;861;-88
2022/06/10 01:07:33;;;;;;;;;;;27.90;52.50;;;;;;660393;30;786;-96
2022/06/10 01:07:59;;;;;;;;;;;27.90;52.60;;;;;;660493;30;821;-94
2022/06/10 01:08:21;;;;;;;;;;;27.90;52.60;;;;;;659863;30;983;-95
2022/06/10 01:08:42;;;;;;;;;;;27.80;52.40;;;;;;660367;30;814;-93
2022/06/10 01:09:03;;;;;;;;;;;27.80;52.50;;;;;;660333;30;790;-91
2022/06/10 01:09:24;;;;;;;;;;;27.90;52.60;;;;;;660473;30;884;-95
2022/06/10 01:09:45;;;;;;;;;;;27.80;52.60;;;;;;660301;30;1142;-94
2022/06/10 01:10:08;;;;;;;;;;;27.90;52.60;;;;;;660248;30;893;-93
2022/06/10 01:10:31;;;;;;;;;;;27.80;52.60;;;;;;660404;30;1337;-94
2022/06/10 01:10:52;;;;;;;;;;;27.90;52.80;;;;;;660307;30;774;-94
2022/06/10 01:11:18;;;;;;;;;;;27.80;52.60;;;;;;660296;30;885;-94
2022/06/10 01:11:47;;;;;;;;;;;27.80;53.60;;;;;;660308;30;924;-88
2022/06/10 01:12:22;;;;;;;;;;;27.80;52.50;;;;;;660341;30;790;-81
2022/06/10 01:12:43;;;;;;;;;;;27.90;52.60;;;;;;660284;30;833;-86
2022/06/10 01:13:12;;;;;;;;;;;27.80;52.50;;;;;;660389;30;854;-94
2022/06/10 01:13:42;;;;;;;;;;;27.80;52.60;;;;;;660313;30;896;-94
2022/06/10 01:14:14;;;;;;;;;;;27.80;52.40;;;;;;660382;30;833;-82
2022/06/10 01:14:35;;;;;;;;;;;27.80;52.60;;;;;;660252;30;936;-94
2022/06/10 01:15:07;;;;;;;;;;;27.80;52.60;;;;;;660224;30;1907;-94
2022/06/10 01:15:34;;;;;;;;;;;27.80;52.50;;;;;;660377;30;897;-94
2022/06/10 01:15:57;;;;;;;;;;;27.80;52.50;;;;;;660459;30;926;-94
2022/06/10 01:16:33;;;;;;;;;;;27.90;52.60;;;;;;660360;30;1051;-91
2022/06/10 01:16:53;;;;;;;;;;;27.80;52.60;;;;;;660510;30;905;-94
2022/06/10 01:17:17;;;;;;;;;;;27.80;52.70;;;;;;660320;30;913;-95
2022/06/10 01:17:37;;;;;;;;;;;27.80;52.60;;;;;;660255;30;889;-89
2022/06/10 01:18:21;;;;;;;;;;;27.80;52.60;;;;;;660538;30;833;-93
2022/06/10 01:18:45;;;;;;;;;;;27.80;52.70;;;;;;660323;30;797;-95
2022/06/10 01:19:06;;;;;;;;;;;27.80;53.80;;;;;;657816;30;1285;-94
2022/06/10 01:19:42;;;;;;;;;;;27.80;52.70;;;;;;658044;30;817;-93
2022/06/10 01:20:15;;;;;;;;;;;27.80;52.70;;;;;;657881;30;874;-93
2022/06/10 01:20:38;;;;;;;;;;;27.80;52.80;;;;;;657773;30;901;-95
2022/06/10 01:21:05;;;;;;;;;;;27.80;52.70;;;;;;659379;30;802;-92
2022/06/10 01:21:28;;;;;;;;;;;27.80;52.70;;;;;;660415;30;882;-94
2022/06/10 01:22:03;;;;;;;;;;;27.80;52.70;;;;;;660320;30;590;-92
2022/06/10 01:22:59;;;;;;;;;;;27.80;52.70;;;;;;660317;30;956;-93
2022/06/10 01:23:25;;;;;;;;;;;27.80;52.80;;;;;;662785;29;1183;-96
2022/06/10 01:23:46;;;;;;;;;;;27.80;52.80;;;;;;662741;29;901;-94
2022/06/10 01:24:22;;;;;;;;;;;27.80;52.80;;;;;;662790;29;916;-82
2022/06/10 01:24:42;;;;;;;;;;;27.80;52.80;;;;;;662761;29;845;-92
2022/06/10 01:25:06;;;;;;;;;;;27.80;52.80;;;;;;662874;29;913;-94
2022/06/10 01:25:45;;;;;;;;;;;27.80;52.90;;;;;;662964;29;974;-92
2022/06/10 01:26:11;;;;;;;;;;;27.70;52.70;;;;;;666344;29;960;-95
2022/06/10 01:26:32;;;;;;;;;;;27.80;52.80;;;;;;670648;29;860;-81
2022/06/10 01:28:15;;;;;;;;;;;27.80;52.80;;;;;;670651;29;639;-94
2022/06/10 01:28:38;;;;;;;;;;;27.80;52.90;;;;;;667517;29;1090;-88
2022/06/10 01:29:22;;;;;;;;;;;27.80;52.90;;;;;;670707;29;939;-95
2022/06/10 01:29:51;;;;;;;;;;;27.80;52.90;;;;;;670444;29;1334;-87
2022/06/10 01:30:12;;;;;;;;;;;27.80;53.00;;;;;;670425;29;829;-94
2022/06/10 01:30:41;;;;;;;;;;;27.80;52.90;;;;;;670442;29;1231;-81
2022/06/10 01:31:12;;;;;;;;;;;27.80;52.90;;;;;;670691;29;848;-95
2022/06/10 01:31:51;;;;;;;;;;;27.80;52.80;;;;;;670341;29;856;-90
2022/06/10 01:32:26;;;;;;;;;;;27.80;52.90;;;;;;670361;29;825;-95
2022/06/10 01:32:53;;;;;;;;;;;27.80;52.90;;;;;;670607;29;812;-83
2022/06/10 01:33:19;;;;;;;;;;;27.80;53.00;;;;;;670696;29;797;-94
2022/06/10 01:33:48;;;;;;;;;;;27.80;53.00;;;;;;669987;29;1220;-93
2022/06/10 01:34:12;;;;;;;;;;;27.80;52.90;;;;;;670429;29;880;-93
2022/06/10 01:34:53;;;;;;;;;;;27.80;52.80;;;;;;670510;29;872;-91
2022/06/10 01:35:17;;;;;;;;;;;27.80;53.00;;;;;;670470;29;840;-93
2022/06/10 01:35:42;;;;;;;;;;;27.80;52.90;;;;;;670476;29;1160;-93
2022/06/10 01:36:15;;;;;;;;;;;27.80;52.80;;;;;;670597;29;781;-91
2022/06/10 01:36:45;;;;;;;;;;;27.90;53.00;;;;;;670539;29;860;-92
2022/06/10 01:37:06;;;;;;;;;;;27.90;53.00;;;;;;670616;29;824;-93
2022/06/10 01:37:31;;;;;;;;;;;27.80;52.90;;;;;;670677;29;943;-91
2022/06/10 01:37:51;;;;;;;;;;;27.90;53.00;;;;;;670310;29;1401;-94
2022/06/10 01:38:20;;;;;;;;;;;27.80;52.80;;;;;;670229;29;1741;-92
2022/06/10 01:38:53;;;;;;;;;;;27.80;52.80;;;;;;670260;29;891;-92
2022/06/10 01:39:13;;;;;;;;;;;27.80;52.80;;;;;;670304;29;836;-92
2022/06/10 01:39:53;;;;;;;;;;;27.90;52.80;;;;;;670343;29;801;-90
2022/06/10 01:40:33;;;;;;;;;;;27.80;52.70;;;;;;670466;29;903;-93
2022/06/10 01:41:00;;;;;;;;;;;27.80;52.70;;;;;;662545;29;1090;-83
2022/06/10 01:41:23;;;;;;;;;;;27.80;52.80;;;;;;661382;29;1550;-81
2022/06/10 01:42:05;;;;;;;;;;;27.80;52.80;;;;;;661212;29;1362;-81
2022/06/10 01:42:36;;;;;;;;;;;27.90;52.90;;;;;;660277;30;825;-87
2022/06/10 01:43:09;;;;;;;;;;;27.80;52.80;;;;;;660306;29;1395;-82
2022/06/10 01:43:36;;;;;;;;;;;27.90;53.00;;;;;;662778;29;1007;-90
2022/06/10 01:43:59;;;;;;;;;;;27.90;52.90;;;;;;662554;29;861;-85
2022/06/10 01:44:34;;;;;;;;;;;27.90;52.80;;;;;;659913;30;1193;-90
2022/06/10 01:45:13;;;;;;;;;;;27.90;52.80;;;;;;658962;30;931;-87
2022/06/10 01:45:33;;;;;;;;;;;27.90;52.80;;;;;;660178;30;829;-83
2022/06/10 01:46:00;;;;;;;;;;;27.90;52.80;;;;;;660315;30;794;-86
2022/06/10 01:46:28;;;;;;;;;;;27.90;52.80;;;;;;662190;29;1200;-94
2022/06/10 01:46:52;;;;;;;;;;;27.90;52.80;;;;;;662388;29;1383;-89
2022/06/10 01:47:13;;;;;;;;;;;27.90;52.80;;;;;;662285;29;1243;-92
2022/06/10 01:48:06;;;;;;;;;;;27.90;52.80;;;;;;662674;29;841;-86
2022/06/10 01:48:32;;;;;;;;;;;27.90;52.80;;;;;;655201;30;1296;-93
2022/06/10 01:48:55;;;;;;;;;;;27.90;52.70;;;;;;655271;30;1352;-89
2022/06/10 01:49:17;;;;;;;;;;;27.90;52.80;;;;;;655321;30;798;-93
2022/06/10 01:49:42;;;;;;;;;;;27.90;52.90;;;;;;658036;30;1443;-83
2022/06/10 01:50:07;;;;;;;;;;;27.90;52.80;;;;;;661135;29;1415;-81
2022/06/10 01:50:27;;;;;;;;;;;27.90;52.80;;;;;;662830;29;1333;-88
2022/06/10 01:51:03;;;;;;;;;;;27.90;52.80;;;;;;662639;29;1394;-89
2022/06/10 01:51:27;;;;;;;;;;;27.90;52.80;;;;;;662490;29;1269;-90
2022/06/10 01:51:59;;;;;;;;;;;27.90;52.70;;;;;;662667;29;880;-90
2022/06/10 01:52:24;;;;;;;;;;;27.90;52.70;;;;;;662629;29;858;-79
2022/06/10 01:52:50;;;;;;;;;;;27.90;52.80;;;;;;662543;29;1276;-93
2022/06/10 01:53:13;;;;;;;;;;;27.90;52.80;;;;;;662525;29;1329;-88
2022/06/10 01:53:55;;;;;;;;;;;27.90;52.70;;;;;;662749;29;912;-93
2022/06/10 01:54:21;;;;;;;;;;;27.90;52.70;;;;;;662736;29;880;-89
2022/06/10 01:54:46;;;;;;;;;;;27.90;52.80;;;;;;662690;29;810;-90
2022/06/10 01:55:12;;;;;;;;;;;27.90;52.70;;;;;;663222;29;860;-85
2022/06/10 01:55:36;;;;;;;;;;;27.90;52.80;;;;;;662006;29;1275;-81
2022/06/10 01:56:04;;;;;;;;;;;27.90;52.70;;;;;;663629;29;940;-82
2022/06/10 01:56:24;;;;;;;;;;;27.90;52.80;;;;;;663591;29;991;-87
2022/06/10 01:56:47;;;;;;;;;;;27.90;52.80;;;;;;664071;29;1337;-86
2022/06/10 01:57:10;;;;;;;;;;;27.90;53.80;;;;;;663647;29;867;-82
2022/06/10 01:57:33;;;;;;;;;;;27.90;52.70;;;;;;664070;29;1291;-82
2022/06/10 01:57:57;;;;;;;;;;;27.90;52.80;;;;;;663832;29;1353;-86
2022/06/10 01:58:18;;;;;;;;;;;27.90;52.80;;;;;;664453;29;889;-82
2022/06/10 01:58:41;;;;;;;;;;;27.90;52.70;;;;;;663629;29;1328;-89
2022/06/10 01:59:15;;;;;;;;;;;27.90;52.70;;;;;;660627;30;1023;-87
2022/06/10 01:59:38;;;;;;;;;;;27.90;52.60;;;;;;658847;30;1319;-92
2022/06/10 02:00:01;;;;;;;;;;;27.90;52.70;;;;;;662014;30;821;-83
2022/06/10 02:00:25;;;;;;;;;;;27.90;52.50;;;;;;661295;30;1322;-85
2022/06/10 02:00:47;;;;;;;;;;;27.90;52.60;;;;;;661458;30;829;-80
2022/06/10 02:01:12;;;;;;;;;;;27.90;52.70;;;;;;662040;30;798;-82
2022/06/10 02:01:35;;;;;;;;;;;27.90;52.70;;;;;;660973;30;913;-93
2022/06/10 02:02:02;;;;;;;;;;;27.90;52.70;;;;;;660145;30;1311;-80
2022/06/10 02:02:25;;;;;;;;;;;27.90;52.80;;;;;;661397;30;1079;-84
2022/06/10 02:02:51;;;;;;;;;;;27.90;52.80;;;;;;662233;30;956;-82
2022/06/10 02:03:12;;;;;;;;;;;27.90;52.80;;;;;;660734;30;785;-89
2022/06/10 02:03:52;;;;;;;;;;;27.90;52.90;;;;;;660166;30;833;-87
2022/06/10 02:04:15;;;;;;;;;;;27.80;52.80;;;;;;659170;30;786;-90
2022/06/10 02:04:39;;;;;;;;;;;27.80;52.80;;;;;;660762;30;809;-82
2022/06/10 02:05:02;;;;;;;;;;;27.80;53.90;;;;;;660585;30;802;-93
2022/06/10 02:05:24;;;;;;;;;;;27.80;52.80;;;;;;660857;29;1465;-84
2022/06/10 02:05:58;;;;;;;;;;;27.80;52.80;;;;;;660479;29;833;-81
2022/06/10 02:06:31;;;;;;;;;;;27.80;52.80;;;;;;661283;30;955;-85
2022/06/10 02:06:57;;;;;;;;;;;27.90;52.90;;;;;;660473;30;924;-91
2022/06/10 02:07:40;;;;;;;;;;;27.90;52.80;;;;;;660330;30;921;-82
2022/06/10 02:08:05;;;;;;;;;;;27.80;52.80;;;;;;658797;29;1362;-81
2022/06/10 02:08:29;;;;;;;;;;;27.80;52.80;;;;;;661197;29;1306;-82
2022/06/10 02:08:54;;;;;;;;;;;27.80;52.90;;;;;;658022;30;1252;-84
2022/06/10 02:09:17;;;;;;;;;;;27.80;52.80;;;;;;656445;30;1225;-82
2022/06/10 02:09:46;;;;;;;;;;;27.80;52.90;;;;;;657190;30;1391;-87
2022/06/10 02:10:33;;;;;;;;;;;27.80;53.00;;;;;;659405;30;853;-90
2022/06/10 02:10:55;;;;;;;;;;;27.80;52.90;;;;;;657909;30;1036;-89
2022/06/10 02:11:18;;;;;;;;;;;27.80;53.00;;;;;;658832;30;943;-85
2022/06/10 02:11:42;;;;;;;;;;;27.80;53.00;;;;;;660548;30;1516;-94
2022/06/10 02:12:07;;;;;;;;;;;27.80;53.00;;;;;;659982;30;1384;-88
2022/06/10 02:12:34;;;;;;;;;;;27.80;53.10;;;;;;661613;30;984;-85
2022/06/10 02:13:00;;;;;;;;;;;27.80;53.00;;;;;;662127;30;932;-88
2022/06/10 02:13:23;;;;;;;;;;;27.80;53.00;;;;;;662470;29;849;-89
2022/06/10 02:13:46;;;;;;;;;;;27.80;53.10;;;;;;664355;29;984;-90
2022/06/10 02:14:13;;;;;;;;;;;27.80;53.10;;;;;;661985;29;1287;-82
2022/06/10 02:14:37;;;;;;;;;;;27.80;53.00;;;;;;661062;30;1400;-89
2022/06/10 02:15:00;;;;;;;;;;;27.80;53.00;;;;;;661054;30;1972;-92
2022/06/10 02:15:20;;;;;;;;;;;27.80;53.00;;;;;;661148;30;946;-89
2022/06/10 02:15:44;;;;;;;;;;;27.80;53.10;;;;;;661035;30;839;-92
2022/06/10 02:16:07;;;;;;;;;;;27.80;53.10;;;;;;661022;30;927;-91
2022/06/10 02:16:30;;;;;;;;;;;27.80;53.10;;;;;;661326;29;794;-84
2022/06/10 02:16:51;;;;;;;;;;;27.80;53.10;;;;;;661056;30;602;-93
2022/06/10 02:17:13;;;;;;;;;;;27.80;53.10;;;;;;661489;30;864;-96
2022/06/10 02:17:36;;;;;;;;;;;27.70;53.10;;;;;;660840;30;1461;-92
2022/06/10 02:17:58;;;;;;;;;;;27.80;53.20;;;;;;661060;30;786;-93
2022/06/10 02:18:33;;;;;;;;;;;27.80;53.20;;;;;;660561;30;865;-90
2022/06/10 02:18:53;;;;;;;;;;;27.70;53.10;;;;;;660319;30;862;-85
2022/06/10 02:19:17;;;;;;;;;;;27.70;53.20;;;;;;668266;29;881;-91
2022/06/10 02:19:41;;;;;;;;;;;27.80;53.20;;;;;;667867;29;808;-88
2022/06/10 02:20:03;;;;;;;;;;;27.70;53.10;;;;;;668463;29;916;-94
2022/06/10 02:20:26;;;;;;;;;;;27.70;53.20;;;;;;669028;29;1324;-87
2022/06/10 02:20:49;;;;;;;;;;;27.80;53.30;;;;;;669438;29;885;-90
2022/06/10 02:21:16;;;;;;;;;;;27.80;53.30;;;;;;668238;29;1423;-90
2022/06/10 02:21:48;;;;;;;;;;;27.70;53.20;;;;;;665245;29;1397;-92
2022/06/10 02:22:08;;;;;;;;;;;27.80;53.30;;;;;;665239;29;797;-93
2022/06/10 02:22:39;;;;;;;;;;;27.80;53.40;;;;;;665492;29;940;-92
2022/06/10 02:23:02;;;;;;;;;;;27.70;53.40;;;;;;668257;29;1527;-94
2022/06/10 02:23:25;;;;;;;;;;;27.80;53.30;;;;;;670033;29;853;-89
2022/06/10 02:23:49;;;;;;;;;;;27.70;53.30;;;;;;668555;29;872;-93
2022/06/10 02:24:28;;;;;;;;;;;27.70;53.30;;;;;;668462;29;821;-90
2022/06/10 02:24:59;;;;;;;;;;;27.70;53.30;;;;;;668546;29;942;-90
2022/06/10 02:25:20;;;;;;;;;;;27.80;53.40;;;;;;667895;29;1085;-91
2022/06/10 02:25:43;;;;;;;;;;;27.70;53.30;;;;;;668061;29;808;-96
2022/06/10 02:26:05;;;;;;;;;;;27.70;53.30;;;;;;667924;29;835;-90
2022/06/10 02:26:27;;;;;;;;;;;27.70;53.30;;;;;;667942;29;917;-93
2022/06/10 02:26:48;;;;;;;;;;;27.70;53.40;;;;;;667843;29;871;-86
2022/06/10 02:27:17;;;;;;;;;;;27.70;53.30;;;;;;667828;29;883;-92
2022/06/10 02:27:40;;;;;;;;;;;27.70;53.40;;;;;;668211;29;988;-94
2022/06/10 02:28:03;;;;;;;;;;;27.70;53.30;;;;;;668205;29;801;-90
2022/06/10 02:28:27;;;;;;;;;;;27.70;53.40;;;;;;669441;29;876;-96
2022/06/10 02:28:51;;;;;;;;;;;27.70;53.40;;;;;;668500;29;880;-90
2022/06/10 02:29:15;;;;;;;;;;;27.70;53.40;;;;;;668035;29;849;-91
2022/06/10 02:29:39;;;;;;;;;;;27.70;53.40;;;;;;667901;29;813;-90